EGPI/ILY METAR and TAF weather

Enter ICAO airport designator
Station Type Date Time Source
EGPI METAR 2019/02/23 17:20 UTC NOAA

EGPI 231720Z AUTO 16010KT 130V190 9000 NCD 10/09 Q1026


Station Type Date Time Source
EGPI Decoded METAR 2019/02/23 17:20 UTC NOAA

Islay, United Kingdom (EGPI) 55-40-55N 006-15-24W
Feb 23, 2019 - 12:20 PM EST / 2019.02.23 1720 UTC
Wind: from the SSE (160 degrees) at 12 MPH (10 KT) (direction variable):0
Visibility: 5 mile(s):0
Temperature: 50 F (10 C)
Dew Point: 48 F (9 C)
Relative Humidity: 93%
Pressure (altimeter): 30.30 in. Hg (1026 hPa)
ob: EGPI 231720Z AUTO 16010KT 130V190 9000 NCD 10/09 Q1026
cycle: 17

Station Type Date Time Source
EGPI TAF UTC NOAA

Error!


Example: see airport list